createdAt,value
2023-02-06T00:01:48.338Z,12.37
2023-02-06T00:04:14.941Z,11.83
2023-02-06T00:06:41.713Z,11.50
2023-02-06T00:09:08.326Z,10.53
2023-02-06T00:11:34.957Z,10.90
2023-02-06T00:14:01.524Z,11.80
2023-02-06T00:16:28.975Z,10.40
2023-02-06T00:18:55.755Z,10.00
2023-02-06T00:21:24.637Z,9.50
2023-02-06T00:26:35.887Z,9.43
2023-02-06T00:31:46.651Z,9.30
2023-02-06T00:34:13.258Z,9.17
2023-02-06T00:36:39.908Z,9.73
2023-02-06T00:39:07.717Z,8.27
2023-02-06T00:41:34.633Z,9.93
2023-02-06T00:44:01.215Z,9.30
2023-02-06T00:46:27.865Z,9.33
2023-02-06T00:48:54.526Z,7.30
2023-02-06T00:51:21.138Z,10.83
2023-02-06T00:53:50.142Z,9.73
2023-02-06T00:59:01.606Z,9.77
2023-02-06T01:01:28.490Z,10.03
2023-02-06T01:03:55.202Z,10.07
2023-02-06T01:06:21.856Z,10.43
2023-02-06T01:08:50.809Z,10.03
2023-02-06T01:11:19.307Z,10.80
2023-02-06T01:13:45.981Z,10.73
2023-02-06T01:16:14.903Z,9.67
2023-02-06T01:18:41.657Z,9.57
2023-02-06T01:21:11.731Z,10.30
2023-02-06T01:26:24.479Z,10.07
2023-02-06T01:31:35.311Z,9.87
2023-02-06T01:36:48.494Z,8.93
2023-02-06T01:42:00.455Z,8.80
2023-02-06T02:16:39.541Z,5.97
2023-02-06T02:19:21.276Z,5.90
2023-02-06T02:22:03.902Z,6.20
2023-02-06T02:24:31.903Z,5.60
2023-02-06T02:26:58.519Z,6.17
2023-02-06T02:32:48.442Z,3.03
2023-02-06T02:35:36.896Z,6.83
2023-02-06T02:38:30.090Z,4.47
2023-02-06T02:44:09.278Z,6.20
2023-02-06T02:46:37.285Z,6.80
2023-02-06T02:49:04.955Z,5.57
2023-02-06T02:51:32.704Z,5.67
2023-02-06T02:56:43.759Z,5.33
2023-02-06T02:59:24.227Z,5.97
2023-02-06T03:01:59.199Z,5.33
2023-02-06T03:07:12.557Z,6.50
2023-02-06T03:09:44.251Z,6.13
2023-02-06T03:12:31.850Z,5.63
2023-02-06T03:17:46.602Z,6.43
2023-02-06T03:20:13.753Z,7.07
2023-02-06T03:22:40.362Z,6.67
2023-02-06T03:25:08.018Z,6.43
2023-02-06T03:27:34.758Z,5.23
2023-02-06T03:30:01.318Z,5.30
2023-02-06T03:32:29.789Z,5.30
2023-02-06T03:35:07.397Z,4.77
2023-02-06T03:37:34.155Z,5.57
2023-02-06T03:40:00.849Z,4.67
2023-02-06T03:42:28.453Z,4.97
2023-02-06T03:44:56.670Z,4.50
2023-02-06T03:47:23.338Z,5.07
2023-02-06T03:52:36.771Z,5.17
2023-02-06T03:55:06.443Z,3.80
2023-02-06T03:57:33.109Z,4.77
2023-02-06T03:59:59.671Z,4.80
2023-02-06T04:02:26.693Z,5.40
2023-02-06T04:04:53.349Z,6.10
2023-02-06T04:07:22.006Z,4.03
2023-02-06T04:09:48.695Z,4.83
2023-02-06T04:12:15.581Z,5.20
2023-02-06T04:14:42.587Z,4.73
2023-02-06T04:17:09.371Z,5.27
2023-02-06T04:19:36.011Z,4.47
2023-02-06T04:22:02.631Z,2.60
2023-02-06T04:27:13.851Z,5.30
2023-02-06T04:32:24.513Z,4.13
2023-02-06T04:37:35.421Z,3.73
2023-02-06T04:40:01.988Z,5.10
2023-02-06T04:42:28.651Z,4.80
2023-02-06T04:44:55.265Z,4.50
2023-02-06T04:47:21.927Z,4.20
2023-02-06T04:49:48.447Z,5.87
2023-02-06T04:52:15.057Z,3.73
2023-02-06T04:54:41.648Z,5.30
2023-02-06T04:57:08.225Z,5.80
2023-02-06T04:59:34.752Z,5.87
2023-02-06T05:04:45.484Z,5.37
2023-02-06T05:07:12.083Z,5.27
2023-02-06T05:09:38.763Z,6.97
2023-02-06T05:12:05.368Z,5.90
2023-02-06T05:14:32.056Z,6.23
2023-02-06T05:16:58.602Z,6.03
2023-02-06T05:19:25.214Z,6.13
2023-02-06T05:24:35.756Z,5.03
2023-02-06T05:29:46.718Z,6.43
2023-02-06T05:34:57.598Z,5.83
2023-02-06T05:37:24.168Z,6.00
2023-02-06T05:39:50.763Z,7.10
2023-02-06T05:42:17.302Z,6.37
2023-02-06T05:44:43.985Z,5.47
2023-02-06T05:47:10.532Z,7.37
2023-02-06T05:49:37.098Z,6.23
2023-02-06T05:52:03.718Z,7.90
2023-02-06T05:54:30.408Z,6.47
2023-02-06T05:56:59.810Z,5.87
2023-02-06T05:59:26.514Z,6.50
2023-02-06T06:01:53.065Z,6.60
2023-02-06T06:04:19.747Z,5.40
2023-02-06T06:06:46.381Z,7.13
2023-02-06T06:09:13.051Z,7.50
2023-02-06T06:11:39.609Z,8.43
2023-02-06T06:16:50.062Z,7.63
2023-02-06T06:19:17.070Z,6.70
2023-02-06T06:21:43.814Z,8.07
2023-02-06T06:24:10.370Z,8.67
2023-02-06T06:29:21.934Z,7.97
2023-02-06T06:31:48.583Z,5.47
2023-02-06T06:34:15.219Z,7.63
2023-02-06T06:36:41.759Z,7.07
2023-02-06T06:39:08.359Z,7.63
2023-02-06T06:41:34.887Z,8.07
2023-02-06T06:44:01.643Z,8.43
2023-02-06T06:46:28.287Z,8.10
2023-02-06T06:48:54.914Z,7.60
2023-02-06T06:51:21.535Z,7.10
2023-02-06T06:53:48.269Z,6.43
2023-02-06T06:56:14.934Z,6.93
2023-02-06T06:58:41.674Z,7.40
2023-02-06T07:01:08.746Z,7.53
2023-02-06T07:03:35.541Z,6.67
2023-02-06T07:06:02.186Z,7.77
2023-02-06T07:08:31.660Z,7.77
2023-02-06T07:10:58.352Z,8.67
2023-02-06T07:13:25.078Z,7.27
2023-02-06T07:15:51.670Z,7.77
2023-02-06T07:18:18.279Z,7.93
2023-02-06T07:20:44.857Z,7.80
2023-02-06T07:23:11.488Z,7.83
2023-02-06T07:25:38.335Z,7.67
2023-02-06T07:28:05.177Z,8.13
2023-02-06T07:30:31.912Z,8.30
2023-02-06T07:32:58.574Z,8.43
2023-02-06T07:35:25.137Z,8.53
2023-02-06T07:37:54.823Z,8.53
2023-02-06T07:40:21.500Z,7.90
2023-02-06T07:42:48.134Z,8.00
2023-02-06T07:45:21.257Z,8.63
2023-02-06T07:47:52.056Z,7.20
2023-02-06T07:50:18.742Z,9.10
2023-02-06T07:55:29.683Z,9.87
2023-02-06T07:57:56.446Z,11.10
2023-02-06T08:00:23.229Z,10.77
2023-02-06T08:02:49.778Z,10.53
2023-02-06T08:05:16.540Z,9.07
2023-02-06T08:07:43.089Z,9.37
2023-02-06T08:10:09.841Z,7.83
2023-02-06T08:12:36.441Z,7.80
2023-02-06T08:15:03.879Z,9.00
2023-02-06T08:17:30.442Z,7.70
2023-02-06T08:19:57.121Z,7.77
2023-02-06T08:22:23.707Z,7.70
2023-02-06T08:24:50.334Z,6.97
2023-02-06T08:27:16.962Z,7.23
2023-02-06T08:29:44.420Z,8.13
2023-02-06T08:32:11.329Z,7.37
2023-02-06T08:34:41.665Z,7.23
2023-02-06T08:37:08.570Z,7.60
2023-02-06T08:39:35.378Z,8.63
2023-02-06T08:42:02.095Z,7.97
2023-02-06T08:44:28.962Z,8.27
2023-02-06T08:47:08.915Z,7.83
2023-02-06T08:49:37.190Z,7.17
2023-02-06T08:52:04.089Z,7.73
2023-02-06T08:54:31.457Z,7.47
2023-02-06T08:57:01.087Z,7.10
2023-02-06T08:59:29.464Z,7.60
2023-02-06T09:01:56.202Z,7.77
2023-02-06T09:04:23.106Z,7.77
2023-02-06T09:06:50.618Z,7.70
2023-02-06T09:09:18.069Z,7.03
2023-02-06T09:11:44.918Z,7.33
2023-02-06T09:14:15.100Z,7.67
2023-02-06T09:16:42.060Z,6.90
2023-02-06T09:19:09.856Z,8.20
2023-02-06T09:21:37.033Z,7.73
2023-02-06T09:24:05.210Z,8.23
2023-02-06T09:26:33.609Z,7.90
2023-02-06T09:29:01.043Z,7.60
2023-02-06T09:31:29.087Z,8.37
2023-02-06T09:36:40.772Z,7.43
2023-02-06T09:39:07.833Z,7.83
2023-02-06T09:41:40.608Z,7.83
2023-02-06T09:44:27.544Z,7.80
2023-02-06T09:46:58.367Z,7.00
2023-02-06T09:49:30.648Z,8.03
2023-02-06T09:52:09.299Z,7.50
2023-02-06T09:57:35.587Z,7.73
2023-02-06T10:00:21.083Z,7.77
2023-02-06T10:02:59.707Z,7.40
2023-02-06T10:08:30.314Z,7.80
2023-02-06T10:10:58.566Z,7.17
2023-02-06T10:13:28.303Z,7.20
2023-02-06T10:15:59.787Z,7.77
2023-02-06T10:18:38.610Z,7.63
2023-02-06T10:21:14.512Z,8.10
2023-02-06T10:23:46.044Z,7.87
2023-02-06T10:26:18.455Z,8.03
2023-02-06T10:28:48.107Z,8.37
2023-02-06T10:31:17.905Z,8.83
2023-02-06T10:33:54.911Z,9.20
2023-02-06T10:36:34.086Z,8.40
2023-02-06T10:39:01.508Z,8.33
2023-02-06T10:41:51.197Z,7.20
2023-02-06T10:44:27.381Z,7.13
2023-02-06T10:46:54.225Z,7.90
2023-02-06T10:49:27.884Z,8.37
2023-02-06T10:51:56.254Z,9.13
2023-02-06T10:54:31.600Z,7.63
2023-02-06T10:56:58.567Z,8.60
2023-02-06T10:59:28.288Z,8.50
2023-02-06T11:02:10.110Z,7.97
2023-02-06T11:04:40.693Z,9.43
2023-02-06T11:07:09.033Z,8.00
2023-02-06T11:09:36.299Z,8.97
2023-02-06T11:12:03.131Z,8.90
2023-02-06T11:14:33.743Z,8.70
2023-02-06T11:17:00.497Z,7.97
2023-02-06T11:19:32.434Z,8.13
2023-02-06T11:22:06.363Z,8.93
2023-02-06T11:24:33.107Z,8.03
2023-02-06T11:27:03.188Z,7.93
2023-02-06T11:32:37.919Z,8.27
2023-02-06T11:37:52.067Z,8.17
2023-02-06T11:43:19.457Z,9.47
2023-02-06T11:45:47.397Z,9.47
2023-02-06T11:48:34.002Z,8.67
2023-02-06T11:51:00.795Z,8.80
2023-02-06T11:53:27.440Z,8.63
2023-02-06T11:56:14.071Z,7.57
2023-02-06T11:58:40.939Z,8.43
2023-02-06T12:01:09.567Z,7.70
2023-02-06T12:03:37.493Z,7.70
2023-02-06T12:06:08.928Z,8.20
2023-02-06T12:08:38.732Z,8.00
2023-02-06T12:11:05.936Z,8.10
2023-02-06T12:13:37.935Z,8.63
2023-02-06T12:16:05.417Z,8.53
2023-02-06T12:18:35.833Z,8.30
2023-02-06T12:21:08.983Z,8.83
2023-02-06T12:23:37.866Z,8.73
2023-02-06T12:26:05.525Z,8.37
2023-02-06T12:28:38.095Z,8.37
2023-02-06T12:31:09.295Z,8.50
2023-02-06T12:33:55.267Z,8.60
2023-02-06T12:36:25.765Z,8.63
2023-02-06T12:39:05.436Z,9.47
2023-02-06T12:41:34.914Z,8.67
2023-02-06T12:44:20.835Z,9.50
2023-02-06T12:46:50.031Z,9.13
2023-02-06T12:49:19.398Z,10.03
2023-02-06T12:52:05.528Z,10.17
2023-02-06T12:54:32.208Z,9.80
2023-02-06T12:57:05.455Z,10.97
2023-02-06T12:59:46.196Z,11.83
2023-02-06T13:02:26.109Z,13.80
2023-02-06T13:04:52.857Z,16.03
2023-02-06T13:07:20.187Z,13.23
2023-02-06T13:12:40.346Z,12.73
2023-02-06T13:17:51.771Z,10.30
2023-02-06T13:20:19.553Z,10.60
2023-02-06T13:22:46.473Z,11.20
2023-02-06T13:28:25.736Z,8.70
2023-02-06T13:30:59.708Z,8.27
2023-02-06T13:33:27.226Z,8.13
2023-02-06T13:36:00.645Z,8.13
2023-02-06T13:38:28.799Z,8.97
2023-02-06T13:41:16.820Z,9.03
2023-02-06T13:43:46.359Z,10.30
2023-02-06T13:46:14.072Z,9.33
2023-02-06T13:48:58.866Z,9.93
2023-02-06T13:51:25.638Z,11.10
2023-02-06T13:53:52.242Z,9.53
2023-02-06T13:56:28.007Z,9.23
2023-02-06T13:58:54.998Z,7.27
2023-02-06T14:01:26.109Z,8.60
2023-02-06T14:06:37.152Z,7.23
2023-02-06T14:09:04.225Z,7.00
2023-02-06T14:11:40.350Z,7.70
2023-02-06T14:17:05.597Z,7.80
2023-02-06T14:19:51.797Z,6.73
2023-02-06T14:22:28.068Z,6.33
2023-02-06T14:25:13.384Z,6.33
2023-02-06T14:28:06.556Z,6.60
2023-02-06T14:30:44.898Z,7.80
2023-02-06T14:33:29.882Z,7.23
2023-02-06T14:35:59.558Z,5.87
2023-02-06T14:38:32.234Z,5.90
2023-02-06T14:40:59.541Z,6.10
2023-02-06T14:43:27.264Z,6.17
2023-02-06T14:46:06.239Z,5.90
2023-02-06T14:48:41.248Z,6.57
2023-02-06T14:51:08.250Z,6.53
2023-02-06T14:53:38.871Z,5.23
2023-02-06T14:56:09.668Z,6.40
2023-02-06T14:58:36.636Z,4.77
2023-02-06T15:01:13.975Z,8.53
2023-02-06T15:03:41.966Z,6.00
2023-02-06T15:06:10.332Z,7.23
2023-02-06T15:08:39.101Z,7.53
2023-02-06T15:11:06.461Z,7.40
2023-02-06T15:13:37.609Z,9.03
2023-02-06T15:18:49.843Z,7.17
2023-02-06T15:21:17.274Z,8.83
2023-02-06T15:23:51.047Z,8.57
2023-02-06T15:29:15.797Z,7.80
2023-02-06T15:34:30.898Z,11.93
2023-02-06T15:36:57.811Z,9.93
2023-02-06T15:39:24.507Z,9.07
2023-02-06T15:41:51.553Z,9.63
2023-02-06T15:44:26.340Z,11.17
2023-02-06T15:46:55.319Z,11.20
2023-02-06T15:52:33.480Z,10.33
2023-02-06T15:55:00.215Z,11.47
2023-02-06T15:57:31.640Z,9.60
2023-02-06T15:59:58.420Z,11.83
2023-02-06T16:05:24.225Z,6.07
2023-02-06T16:07:51.364Z,6.10
2023-02-06T16:10:36.889Z,7.20
2023-02-06T16:13:08.574Z,7.90
2023-02-06T16:15:36.781Z,9.00
2023-02-06T16:21:16.645Z,7.73
2023-02-06T16:23:47.020Z,8.50
2023-02-06T16:26:29.437Z,8.53
2023-02-06T16:28:56.586Z,8.03
2023-02-06T16:31:24.161Z,8.27
2023-02-06T16:33:51.552Z,11.30
2023-02-06T16:36:22.075Z,14.60
2023-02-06T16:39:03.757Z,10.20
2023-02-06T16:41:33.599Z,9.10
2023-02-06T16:44:00.309Z,8.30
2023-02-06T16:46:27.729Z,8.40
2023-02-06T16:48:55.135Z,10.30
2023-02-06T16:51:23.096Z,12.97
2023-02-06T16:53:49.908Z,13.70
2023-02-06T16:56:16.967Z,12.87
2023-02-06T16:58:43.762Z,10.77
2023-02-06T17:01:23.171Z,12.03
2023-02-06T17:03:50.147Z,11.40
2023-02-06T17:06:18.987Z,14.20
2023-02-06T17:08:45.744Z,10.23
2023-02-06T17:11:13.663Z,8.40
2023-02-06T17:13:40.351Z,7.77
2023-02-06T17:16:07.044Z,8.73
2023-02-06T17:18:33.741Z,9.17
2023-02-06T17:21:00.322Z,9.93
2023-02-06T17:23:27.143Z,11.93
2023-02-06T17:25:54.054Z,14.77
2023-02-06T17:28:20.809Z,18.27
2023-02-06T17:30:49.079Z,17.83
2023-02-06T17:33:16.098Z,13.17
2023-02-06T17:35:42.747Z,13.03
2023-02-06T17:38:09.544Z,13.37
2023-02-06T17:40:36.875Z,12.60
2023-02-06T17:43:04.830Z,11.50
2023-02-06T17:45:32.049Z,11.07
2023-02-06T17:47:58.908Z,9.87
2023-02-06T17:50:26.990Z,10.40
2023-02-06T17:52:55.746Z,9.27
2023-02-06T17:55:25.923Z,10.67
2023-02-06T17:57:52.852Z,11.50
2023-02-06T18:00:20.352Z,12.40
2023-02-06T18:02:47.160Z,12.33
2023-02-06T18:05:13.970Z,12.10
2023-02-06T18:07:40.839Z,12.10
2023-02-06T18:10:07.678Z,10.50
2023-02-06T18:12:34.535Z,9.03
2023-02-06T18:15:02.509Z,11.57
2023-02-06T18:17:29.329Z,9.70
2023-02-06T18:19:56.033Z,10.07
2023-02-06T18:22:22.995Z,10.80
2023-02-06T18:24:49.873Z,11.87
2023-02-06T18:27:16.820Z,7.27
2023-02-06T18:32:29.226Z,3.50
2023-02-06T18:37:40.345Z,6.57
2023-02-06T18:40:07.182Z,5.50
2023-02-06T18:42:53.512Z,3.47
2023-02-06T18:45:23.690Z,4.50
2023-02-06T18:47:52.987Z,3.43
2023-02-06T18:50:24.233Z,7.33
2023-02-06T18:52:51.161Z,6.90
2023-02-06T18:55:17.801Z,6.30
2023-02-06T18:57:44.562Z,7.87
2023-02-06T19:00:12.105Z,22.40
2023-02-06T19:02:38.768Z,14.33
2023-02-06T19:05:05.569Z,7.63
2023-02-06T19:07:32.523Z,15.43
2023-02-06T19:09:59.637Z,20.60
2023-02-06T19:12:29.617Z,12.50
2023-02-06T19:14:56.758Z,28.40
2023-02-06T19:17:24.061Z,10.80
2023-02-06T19:19:50.762Z,14.60
2023-02-06T19:22:17.578Z,16.00
2023-02-06T19:24:44.590Z,10.77
2023-02-06T19:27:11.917Z,5.07
2023-02-06T19:29:38.949Z,4.20
2023-02-06T19:32:11.073Z,4.20
2023-02-06T19:34:38.542Z,4.00
2023-02-06T19:37:05.719Z,5.10
2023-02-06T19:39:34.394Z,10.20
2023-02-06T19:42:01.893Z,9.50
2023-02-06T19:44:29.930Z,8.40
2023-02-06T19:46:57.240Z,7.80
2023-02-06T19:49:25.034Z,5.97
2023-02-06T19:51:52.289Z,6.73
2023-02-06T19:54:19.153Z,6.00
2023-02-06T19:56:46.865Z,6.37
2023-02-06T20:02:02.682Z,9.53
2023-02-06T20:04:31.382Z,11.27
2023-02-06T20:06:59.256Z,16.27
2023-02-06T20:09:27.117Z,14.70
2023-02-06T20:11:56.477Z,14.20
2023-02-06T20:14:24.909Z,12.37
2023-02-06T20:16:51.893Z,8.97
2023-02-06T20:19:22.000Z,10.27
2023-02-06T20:21:53.229Z,6.27
2023-02-06T20:24:22.251Z,4.87
2023-02-06T20:26:50.464Z,5.70
2023-02-06T20:29:24.736Z,5.60
2023-02-06T20:31:52.009Z,8.20
2023-02-06T20:34:18.971Z,10.00
2023-02-06T20:36:47.305Z,10.07
2023-02-06T20:39:14.540Z,14.77
2023-02-06T20:41:41.514Z,13.27
2023-02-06T20:44:08.260Z,9.33
2023-02-06T20:46:35.175Z,5.67
2023-02-06T20:49:02.600Z,6.10
2023-02-06T20:54:14.156Z,5.27
2023-02-06T20:56:42.241Z,4.37
2023-02-06T20:59:10.268Z,3.70
2023-02-06T21:01:36.951Z,4.37
2023-02-06T21:04:05.681Z,4.13
2023-02-06T21:06:33.599Z,3.90
2023-02-06T21:09:01.184Z,5.27
2023-02-06T21:11:29.588Z,4.30
2023-02-06T21:13:57.505Z,4.40
2023-02-06T21:16:24.273Z,9.93
2023-02-06T21:21:37.699Z,5.27
2023-02-06T21:24:04.767Z,3.93
2023-02-06T21:26:31.767Z,4.33
2023-02-06T21:28:58.893Z,4.33
2023-02-06T21:31:34.169Z,4.50
2023-02-06T21:34:05.211Z,4.63
2023-02-06T21:36:31.906Z,4.17
2023-02-06T21:38:59.904Z,3.77
2023-02-06T21:41:26.985Z,3.27
2023-02-06T21:43:53.755Z,4.10
2023-02-06T21:46:20.565Z,4.20
2023-02-06T21:48:50.830Z,4.80
2023-02-06T21:51:17.502Z,3.53
2023-02-06T21:56:28.979Z,3.80
2023-02-06T21:58:56.954Z,2.40
2023-02-06T22:01:27.346Z,2.57
2023-02-06T22:03:54.110Z,2.47
2023-02-06T22:09:07.726Z,2.60
2023-02-06T22:11:37.669Z,2.37
2023-02-06T22:14:05.331Z,2.50
2023-02-06T22:16:32.041Z,2.90
2023-02-06T22:19:00.717Z,2.27
2023-02-06T22:21:27.922Z,2.27
2023-02-06T22:23:58.070Z,2.60
2023-02-06T22:26:25.693Z,2.57
2023-02-06T22:28:52.365Z,2.83
2023-02-06T22:31:20.037Z,2.60
2023-02-06T22:33:46.802Z,2.63
2023-02-06T22:36:14.308Z,1.97
2023-02-06T22:38:41.164Z,2.07
2023-02-06T22:41:08.866Z,1.70
2023-02-06T22:43:36.516Z,2.20
2023-02-06T22:46:03.245Z,2.47
2023-02-06T22:48:29.852Z,2.37
2023-02-06T22:50:56.511Z,2.60
2023-02-06T22:53:32.155Z,2.00
2023-02-06T22:56:23.893Z,2.07
2023-02-06T22:58:50.610Z,2.40
2023-02-06T23:01:17.695Z,2.20
2023-02-06T23:03:44.396Z,2.67
2023-02-06T23:06:11.684Z,2.80
2023-02-06T23:08:38.333Z,2.73
2023-02-06T23:11:05.148Z,2.90
2023-02-06T23:16:16.047Z,2.60
2023-02-06T23:18:44.100Z,2.80
2023-02-06T23:21:12.042Z,2.87
2023-02-06T23:23:38.796Z,1.60
2023-02-06T23:28:53.336Z,2.53
2023-02-06T23:34:04.361Z,2.70
2023-02-06T23:39:15.065Z,2.00
2023-02-06T23:41:41.700Z,1.80
2023-02-06T23:44:08.605Z,2.17
2023-02-06T23:46:36.246Z,2.03
2023-02-06T23:49:02.922Z,2.20
2023-02-06T23:51:30.111Z,1.90
2023-02-06T23:53:56.864Z,2.40
2023-02-06T23:56:24.248Z,1.90
2023-02-06T23:58:50.863Z,2.20
